X  Close Metar Aviation Weather Data     EBBR Brussels Airport
Temperature
20°C Temperature
8°C Dewpoint
46% Humidity



Wind
23 KM/H
14 MPH
6 M/S
12 KTS



250°
WSW
Current Conditions

Clear Clear
Pressure 1011.92 (hPa) - 29.88 (inHg)
Visibility 6.2 (mile) - 10 (km)
Airport
Airport-code EBBR

Location: Brussels Airport
Distance: 14 (km)

Metar:
EBBR 291750Z 25012KT CAVOK 20/08 Q1012 NOSIG

Time: 2021-07-29 19:50 CEST